sensor_id;sensor_type;location;lat;lon;timestamp;P1;durP1;ratioP1;P2;durP2;ratioP2
1747;SDS011;871;47.034;15.394;2023-01-31T05:02:31;40.47;;;3.58;;
1747;SDS011;871;47.034;15.394;2023-01-31T05:04:57;39.22;;;3.08;;
1747;SDS011;871;47.034;15.394;2023-01-31T05:07:24;37.25;;;2.88;;
1747;SDS011;871;47.034;15.394;2023-01-31T05:09:50;37.53;;;2.13;;
1747;SDS011;871;47.034;15.394;2023-01-31T05:12:16;36.70;;;1.90;;
1747;SDS011;871;47.034;15.394;2023-01-31T05:14:42;36.65;;;2.10;;
1747;SDS011;871;47.034;15.394;2023-01-31T05:17:09;38.10;;;3.10;;
1747;SDS011;871;47.034;15.394;2023-01-31T05:19:35;37.50;;;2.67;;
1747;SDS011;871;47.034;15.394;2023-01-31T05:22:02;36.75;;;2.05;;
1747;SDS011;871;47.034;15.394;2023-01-31T05:24:29;37.58;;;3.05;;
1747;SDS011;871;47.034;15.394;2023-01-31T05:26:56;40.00;;;2.80;;
1747;SDS011;871;47.034;15.394;2023-01-31T05:29:26;38.55;;;3.33;;
1747;SDS011;871;47.034;15.394;2023-01-31T05:31:53;38.78;;;2.70;;
1747;SDS011;871;47.034;15.394;2023-01-31T05:34:19;38.00;;;3.53;;
1747;SDS011;871;47.034;15.394;2023-01-31T05:36:46;39.42;;;4.35;;
1747;SDS011;871;47.034;15.394;2023-01-31T05:39:12;42.67;;;6.30;;
1747;SDS011;871;47.034;15.394;2023-01-31T05:41:38;44.90;;;5.88;;
1747;SDS011;871;47.034;15.394;2023-01-31T05:44:04;44.40;;;5.60;;
1747;SDS011;871;47.034;15.394;2023-01-31T05:46:30;40.53;;;4.13;;
1747;SDS011;871;47.034;15.394;2023-01-31T05:48:56;40.30;;;3.63;;
1747;SDS011;871;47.034;15.394;2023-01-31T05:51:22;39.72;;;4.50;;
1747;SDS011;871;47.034;15.394;2023-01-31T05:53:48;40.58;;;4.72;;
1747;SDS011;871;47.034;15.394;2023-01-31T05:56:15;41.92;;;5.47;;
1747;SDS011;871;47.034;15.394;2023-01-31T05:58:42;43.03;;;4.68;;
1747;SDS011;871;47.034;15.394;2023-01-31T06:01:08;38.17;;;3.83;;
1747;SDS011;871;47.034;15.394;2023-01-31T06:03:34;39.95;;;3.60;;
1747;SDS011;871;47.034;15.394;2023-01-31T06:06:00;36.97;;;2.95;;
1747;SDS011;871;47.034;15.394;2023-01-31T06:08:29;36.70;;;2.60;;
1747;SDS011;871;47.034;15.394;2023-01-31T06:10:55;37.70;;;3.00;;
1747;SDS011;871;47.034;15.394;2023-01-31T06:13:21;40.90;;;3.40;;
1747;SDS011;871;47.034;15.394;2023-01-31T06:15:48;39.15;;;3.42;;
1747;SDS011;871;47.034;15.394;2023-01-31T06:18:14;38.72;;;3.75;;
1747;SDS011;871;47.034;15.394;2023-01-31T06:20:40;42.90;;;5.20;;
1747;SDS011;871;47.034;15.394;2023-01-31T06:23:06;36.25;;;2.80;;
1747;SDS011;871;47.034;15.394;2023-01-31T06:25:32;41.33;;;5.25;;
1747;SDS011;871;47.034;15.394;2023-01-31T06:27:59;39.57;;;4.73;;
1747;SDS011;871;47.034;15.394;2023-01-31T06:30:25;39.35;;;3.72;;
1747;SDS011;871;47.034;15.394;2023-01-31T06:32:51;38.53;;;4.25;;
1747;SDS011;871;47.034;15.394;2023-01-31T06:35:17;38.15;;;2.75;;
1747;SDS011;871;47.034;15.394;2023-01-31T06:37:44;37.53;;;3.47;;
1747;SDS011;871;47.034;15.394;2023-01-31T06:40:10;38.40;;;3.90;;
1747;SDS011;871;47.034;15.394;2023-01-31T06:42:36;40.15;;;4.05;;
1747;SDS011;871;47.034;15.394;2023-01-31T06:45:02;38.47;;;4.40;;
1747;SDS011;871;47.034;15.394;2023-01-31T06:47:29;39.92;;;4.30;;
1747;SDS011;871;47.034;15.394;2023-01-31T06:49:55;37.65;;;3.50;;
1747;SDS011;871;47.034;15.394;2023-01-31T06:52:21;36.38;;;3.13;;
1747;SDS011;871;47.034;15.394;2023-01-31T06:54:47;44.55;;;7.65;;
1747;SDS011;871;47.034;15.394;2023-01-31T06:57:13;37.53;;;3.45;;
1747;SDS011;871;47.034;15.394;2023-01-31T06:59:39;38.40;;;3.90;;
1747;SDS011;871;47.034;15.394;2023-01-31T07:02:06;39.35;;;4.60;;
1747;SDS011;871;47.034;15.394;2023-01-31T07:04:32;39.17;;;5.30;;
1747;SDS011;871;47.034;15.394;2023-01-31T07:06:58;40.92;;;5.80;;
1747;SDS011;871;47.034;15.394;2023-01-31T07:09:24;45.20;;;8.18;;
1747;SDS011;871;47.034;15.394;2023-01-31T07:11:50;41.60;;;5.45;;
1747;SDS011;871;47.034;15.394;2023-01-31T07:14:16;41.35;;;4.43;;
1747;SDS011;871;47.034;15.394;2023-01-31T07:16:42;39.55;;;5.15;;
1747;SDS011;871;47.034;15.394;2023-01-31T07:19:08;42.30;;;6.70;;
1747;SDS011;871;47.034;15.394;2023-01-31T07:21:34;42.90;;;7.30;;
1747;SDS011;871;47.034;15.394;2023-01-31T07:24:01;43.85;;;6.07;;
1747;SDS011;871;47.034;15.394;2023-01-31T07:26:28;41.67;;;6.00;;
1747;SDS011;871;47.034;15.394;2023-01-31T07:28:54;41.85;;;5.78;;
1747;SDS011;871;47.034;15.394;2023-01-31T07:31:20;45.35;;;7.65;;
1747;SDS011;871;47.034;15.394;2023-01-31T07:33:47;44.00;;;6.28;;
1747;SDS011;871;47.034;15.394;2023-01-31T07:36:13;43.35;;;6.10;;
1747;SDS011;871;47.034;15.394;2023-01-31T07:38:40;41.00;;;5.40;;
1747;SDS011;871;47.034;15.394;2023-01-31T07:41:08;40.83;;;4.93;;
1747;SDS011;871;47.034;15.394;2023-01-31T07:43:35;41.97;;;5.18;;
1747;SDS011;871;47.034;15.394;2023-01-31T07:46:01;44.72;;;3.95;;
1747;SDS011;871;47.034;15.394;2023-01-31T07:48:27;40.42;;;3.80;;
1747;SDS011;871;47.034;15.394;2023-01-31T07:50:58;40.80;;;4.20;;
1747;SDS011;871;47.034;15.394;2023-01-31T07:53:25;40.70;;;4.05;;
1747;SDS011;871;47.034;15.394;2023-01-31T07:55:52;40.72;;;3.80;;
1747;SDS011;871;47.034;15.394;2023-01-31T07:58:18;40.25;;;3.80;;
1747;SDS011;871;47.034;15.394;2023-01-31T08:00:44;36.10;;;2.00;;
1747;SDS011;871;47.034;15.394;2023-01-31T08:03:29;38.35;;;2.60;;
1747;SDS011;871;47.034;15.394;2023-01-31T08:06:08;36.80;;;2.67;;
1747;SDS011;871;47.034;15.394;2023-01-31T08:08:35;35.78;;;1.50;;
1747;SDS011;871;47.034;15.394;2023-01-31T08:11:01;35.85;;;1.88;;
1747;SDS011;871;47.034;15.394;2023-01-31T08:13:31;35.45;;;1.10;;
1747;SDS011;871;47.034;15.394;2023-01-31T08:15:57;35.60;;;1.20;;
1747;SDS011;871;47.034;15.394;2023-01-31T08:18:24;35.88;;;1.80;;
1747;SDS011;871;47.034;15.394;2023-01-31T08:20:50;38.97;;;3.50;;
1747;SDS011;871;47.034;15.394;2023-01-31T08:23:16;44.25;;;4.57;;
1747;SDS011;871;47.034;15.394;2023-01-31T08:25:42;44.40;;;5.07;;
1747;SDS011;871;47.034;15.394;2023-01-31T08:28:08;39.53;;;2.97;;
1747;SDS011;871;47.034;15.394;2023-01-31T08:30:38;38.05;;;2.80;;
1747;SDS011;871;47.034;15.394;2023-01-31T08:33:04;37.33;;;2.53;;
1747;SDS011;871;47.034;15.394;2023-01-31T08:35:30;42.40;;;2.70;;
1747;SDS011;871;47.034;15.394;2023-01-31T08:37:56;37.13;;;2.67;;
1747;SDS011;871;47.034;15.394;2023-01-31T08:40:22;36.00;;;2.20;;
1747;SDS011;871;47.034;15.394;2023-01-31T08:42:58;36.53;;;2.15;;
1747;SDS011;871;47.034;15.394;2023-01-31T08:45:27;37.40;;;2.78;;
1747;SDS011;871;47.034;15.394;2023-01-31T08:47:54;37.60;;;2.55;;
1747;SDS011;871;47.034;15.394;2023-01-31T08:50:21;36.88;;;2.60;;
1747;SDS011;871;47.034;15.394;2023-01-31T08:52:53;38.70;;;3.15;;
1747;SDS011;871;47.034;15.394;2023-01-31T08:55:20;38.50;;;3.28;;
1747;SDS011;871;47.034;15.394;2023-01-31T08:57:46;39.00;;;3.60;;
1747;SDS011;871;47.034;15.394;2023-01-31T09:00:12;49.72;;;2.85;;
1747;SDS011;871;47.034;15.394;2023-01-31T09:02:40;37.97;;;3.35;;
1747;SDS011;871;47.034;15.394;2023-01-31T09:05:06;41.75;;;3.55;;
1747;SDS011;871;47.034;15.394;2023-01-31T09:07:33;42.15;;;3.55;;
1747;SDS011;871;47.034;15.394;2023-01-31T09:10:00;40.83;;;3.38;;
1747;SDS011;871;47.034;15.394;2023-01-31T09:12:27;37.25;;;2.60;;
1747;SDS011;871;47.034;15.394;2023-01-31T09:14:54;53.33;;;3.67;;
1747;SDS011;871;47.034;15.394;2023-01-31T09:17:20;38.97;;;3.17;;
1747;SDS011;871;47.034;15.394;2023-01-31T09:19:46;43.78;;;2.30;;
1747;SDS011;871;47.034;15.394;2023-01-31T09:22:12;43.08;;;2.80;;
1747;SDS011;871;47.034;15.394;2023-01-31T09:24:38;37.37;;;2.80;;
1747;SDS011;871;47.034;15.394;2023-01-31T09:27:04;37.95;;;2.60;;
1747;SDS011;871;47.034;15.394;2023-01-31T09:29:30;37.77;;;2.43;;
1747;SDS011;871;47.034;15.394;2023-01-31T09:31:56;37.72;;;2.40;;
1747;SDS011;871;47.034;15.394;2023-01-31T09:34:24;40.67;;;2.50;;
1747;SDS011;871;47.034;15.394;2023-01-31T09:36:50;42.00;;;2.60;;
1747;SDS011;871;47.034;15.394;2023-01-31T09:39:16;41.17;;;2.13;;
1747;SDS011;871;47.034;15.394;2023-01-31T09:41:55;37.57;;;2.30;;
1747;SDS011;871;47.034;15.394;2023-01-31T09:44:35;36.90;;;1.90;;
1747;SDS011;871;47.034;15.394;2023-01-31T09:49:30;36.50;;;1.80;;
1747;SDS011;871;47.034;15.394;2023-01-31T09:51:58;38.67;;;1.60;;
1747;SDS011;871;47.034;15.394;2023-01-31T09:54:30;35.97;;;1.53;;
1747;SDS011;871;47.034;15.394;2023-01-31T09:57:09;36.60;;;1.80;;
1747;SDS011;871;47.034;15.394;2023-01-31T10:10:23;36.67;;;1.93;;
1747;SDS011;871;47.034;15.394;2023-01-31T10:15:02;40.30;;;2.10;;
1747;SDS011;871;47.034;15.394;2023-01-31T10:17:33;36.20;;;1.73;;
1747;SDS011;871;47.034;15.394;2023-01-31T10:20:09;36.87;;;1.70;;
1747;SDS011;871;47.034;15.394;2023-01-31T10:22:45;35.80;;;1.43;;
1747;SDS011;871;47.034;15.394;2023-01-31T10:25:19;36.63;;;1.70;;
1747;SDS011;871;47.034;15.394;2023-01-31T10:27:47;38.53;;;1.60;;
1747;SDS011;871;47.034;15.394;2023-01-31T10:30:16;37.87;;;1.93;;
1747;SDS011;871;47.034;15.394;2023-01-31T10:32:44;35.70;;;1.13;;
1747;SDS011;871;47.034;15.394;2023-01-31T10:35:20;37.27;;;1.27;;
1747;SDS011;871;47.034;15.394;2023-01-31T10:37:50;36.90;;;1.80;;
1747;SDS011;871;47.034;15.394;2023-01-31T10:42:47;35.30;;;1.27;;
1747;SDS011;871;47.034;15.394;2023-01-31T10:45:15;37.07;;;1.17;;
1747;SDS011;871;47.034;15.394;2023-01-31T10:47:51;35.50;;;1.30;;
1747;SDS011;871;47.034;15.394;2023-01-31T10:58:15;34.97;;;1.17;;
1747;SDS011;871;47.034;15.394;2023-01-31T11:00:46;35.23;;;1.33;;
1747;SDS011;871;47.034;15.394;2023-01-31T11:03:13;37.60;;;1.50;;
1747;SDS011;871;47.034;15.394;2023-01-31T11:05:43;36.50;;;1.57;;
1747;SDS011;871;47.034;15.394;2023-01-31T11:08:18;35.27;;;1.23;;
1747;SDS011;871;47.034;15.394;2023-01-31T11:10:53;34.97;;;1.40;;
1747;SDS011;871;47.034;15.394;2023-01-31T11:13:20;35.80;;;1.30;;
1747;SDS011;871;47.034;15.394;2023-01-31T11:15:47;35.00;;;1.07;;
1747;SDS011;871;47.034;15.394;2023-01-31T11:18:16;37.10;;;1.47;;
1747;SDS011;871;47.034;15.394;2023-01-31T11:20:49;36.83;;;1.70;;
1747;SDS011;871;47.034;15.394;2023-01-31T11:23:20;37.30;;;1.67;;
1747;SDS011;871;47.034;15.394;2023-01-31T11:25:47;36.87;;;1.10;;
1747;SDS011;871;47.034;15.394;2023-01-31T11:28:19;35.70;;;1.57;;
1747;SDS011;871;47.034;15.394;2023-01-31T11:30:47;35.97;;;1.20;;
1747;SDS011;871;47.034;15.394;2023-01-31T11:35:59;36.17;;;1.20;;
1747;SDS011;871;47.034;15.394;2023-01-31T11:38:32;35.97;;;1.30;;
1747;SDS011;871;47.034;15.394;2023-01-31T11:40:58;35.57;;;1.70;;
1747;SDS011;871;47.034;15.394;2023-01-31T11:43:25;35.67;;;1.20;;
1747;SDS011;871;47.034;15.394;2023-01-31T11:48:24;35.50;;;1.50;;
1747;SDS011;871;47.034;15.394;2023-01-31T11:50:55;35.53;;;1.30;;
1747;SDS011;871;47.034;15.394;2023-01-31T11:54:04;35.07;;;1.10;;
1747;SDS011;871;47.034;15.394;2023-01-31T11:56:21;35.20;;;1.10;;
1747;SDS011;871;47.034;15.394;2023-01-31T11:58:51;35.57;;;1.13;;
1747;SDS011;871;47.034;15.394;2023-01-31T12:01:19;34.97;;;1.13;;
1747;SDS011;871;47.034;15.394;2023-01-31T12:03:59;36.03;;;1.20;;
1747;SDS011;871;47.034;15.394;2023-01-31T12:06:33;35.07;;;1.43;;
1747;SDS011;871;47.034;15.394;2023-01-31T12:09:00;35.60;;;1.20;;
1747;SDS011;871;47.034;15.394;2023-01-31T12:13:53;35.03;;;1.03;;
1747;SDS011;871;47.034;15.394;2023-01-31T12:16:25;37.23;;;1.10;;
1747;SDS011;871;47.034;15.394;2023-01-31T12:21:51;35.17;;;1.00;;
1747;SDS011;871;47.034;15.394;2023-01-31T12:37:45;36.37;;;1.50;;
1747;SDS011;871;47.034;15.394;2023-01-31T12:50:51;35.70;;;1.27;;
1747;SDS011;871;47.034;15.394;2023-01-31T12:58:49;36.40;;;1.20;;
1747;SDS011;871;47.034;15.394;2023-01-31T13:01:14;35.80;;;1.40;;
1747;SDS011;871;47.034;15.394;2023-01-31T13:06:14;35.50;;;1.50;;
1747;SDS011;871;47.034;15.394;2023-01-31T13:08:52;35.97;;;1.20;;
1747;SDS011;871;47.034;15.394;2023-01-31T13:11:25;35.87;;;1.50;;
1747;SDS011;871;47.034;15.394;2023-01-31T13:13:54;36.87;;;1.63;;
1747;SDS011;871;47.034;15.394;2023-01-31T13:16:24;36.67;;;1.63;;
1747;SDS011;871;47.034;15.394;2023-01-31T13:18:53;36.67;;;1.53;;
1747;SDS011;871;47.034;15.394;2023-01-31T13:21:21;35.60;;;1.10;;
1747;SDS011;871;47.034;15.394;2023-01-31T13:23:53;35.97;;;1.37;;
1747;SDS011;871;47.034;15.394;2023-01-31T13:26:21;36.60;;;1.27;;
1747;SDS011;871;47.034;15.394;2023-01-31T13:31:20;36.10;;;1.60;;
1747;SDS011;871;47.034;15.394;2023-01-31T13:38:48;38.00;;;1.60;;
1747;SDS011;871;47.034;15.394;2023-01-31T13:41:18;35.30;;;1.20;;
1747;SDS011;871;47.034;15.394;2023-01-31T13:43:46;37.10;;;1.40;;
1747;SDS011;871;47.034;15.394;2023-01-31T13:46:12;38.87;;;1.57;;
1747;SDS011;871;47.034;15.394;2023-01-31T13:48:40;36.47;;;1.50;;
1747;SDS011;871;47.034;15.394;2023-01-31T13:53:49;40.27;;;1.50;;
1747;SDS011;871;47.034;15.394;2023-01-31T13:56:19;35.50;;;1.20;;
1747;SDS011;871;47.034;15.394;2023-01-31T13:58:48;36.00;;;1.33;;
1747;SDS011;871;47.034;15.394;2023-01-31T14:01:20;40.10;;;1.63;;
1747;SDS011;871;47.034;15.394;2023-01-31T14:04:30;35.47;;;1.10;;
1747;SDS011;871;47.034;15.394;2023-01-31T14:07:13;35.80;;;1.33;;
1747;SDS011;871;47.034;15.394;2023-01-31T14:17:10;35.60;;;1.20;;
1747;SDS011;871;47.034;15.394;2023-01-31T14:22:17;35.40;;;1.30;;
1747;SDS011;871;47.034;15.394;2023-01-31T14:27:20;36.13;;;1.37;;
1747;SDS011;871;47.034;15.394;2023-01-31T14:29:55;38.17;;;1.70;;
1747;SDS011;871;47.034;15.394;2023-01-31T14:32:45;37.50;;;1.43;;
1747;SDS011;871;47.034;15.394;2023-01-31T14:37:45;39.97;;;1.90;;
1747;SDS011;871;47.034;15.394;2023-01-31T14:40:27;36.67;;;1.87;;
1747;SDS011;871;47.034;15.394;2023-01-31T14:48:18;38.30;;;1.73;;
1747;SDS011;871;47.034;15.394;2023-01-31T14:58:43;35.60;;;1.20;;
1747;SDS011;871;47.034;15.394;2023-01-31T15:01:10;35.33;;;1.20;;
1747;SDS011;871;47.034;15.394;2023-01-31T15:03:37;37.77;;;1.73;;
1747;SDS011;871;47.034;15.394;2023-01-31T15:06:14;35.70;;;1.60;;
1747;SDS011;871;47.034;15.394;2023-01-31T15:08:44;35.37;;;1.33;;
1747;SDS011;871;47.034;15.394;2023-01-31T15:13:44;36.33;;;1.53;;
1747;SDS011;871;47.034;15.394;2023-01-31T15:16:27;37.40;;;1.90;;
1747;SDS011;871;47.034;15.394;2023-01-31T15:21:30;39.80;;;1.60;;
1747;SDS011;871;47.034;15.394;2023-01-31T15:23:57;37.97;;;1.50;;
1747;SDS011;871;47.034;15.394;2023-01-31T15:26:26;40.70;;;2.03;;
1747;SDS011;871;47.034;15.394;2023-01-31T15:28:54;39.40;;;2.00;;
1747;SDS011;871;47.034;15.394;2023-01-31T15:31:24;36.47;;;2.00;;
1747;SDS011;871;47.034;15.394;2023-01-31T15:33:52;38.17;;;2.90;;
1747;SDS011;871;47.034;15.394;2023-01-31T15:36:27;39.70;;;3.03;;
1747;SDS011;871;47.034;15.394;2023-01-31T15:38:56;37.17;;;2.07;;
1747;SDS011;871;47.034;15.394;2023-01-31T15:41:23;40.70;;;4.73;;
1747;SDS011;871;47.034;15.394;2023-01-31T15:43:51;42.50;;;4.80;;
1747;SDS011;871;47.034;15.394;2023-01-31T15:48:44;39.40;;;3.90;;
1747;SDS011;871;47.034;15.394;2023-01-31T15:51:10;40.50;;;4.53;;
1747;SDS011;871;47.034;15.394;2023-01-31T15:53:37;43.17;;;4.60;;
1747;SDS011;871;47.034;15.394;2023-01-31T15:56:04;41.43;;;3.80;;
1747;SDS011;871;47.034;15.394;2023-01-31T15:58:31;38.60;;;3.67;;
1747;SDS011;871;47.034;15.394;2023-01-31T16:00:58;44.77;;;3.73;;
1747;SDS011;871;47.034;15.394;2023-01-31T16:03:26;45.37;;;5.37;;
1747;SDS011;871;47.034;15.394;2023-01-31T16:05:54;44.10;;;4.03;;
1747;SDS011;871;47.034;15.394;2023-01-31T16:10:53;41.65;;;5.07;;
1747;SDS011;871;47.034;15.394;2023-01-31T16:13:19;44.78;;;6.35;;
1747;SDS011;871;47.034;15.394;2023-01-31T16:15:46;42.92;;;4.47;;
1747;SDS011;871;47.034;15.394;2023-01-31T16:18:12;43.37;;;5.80;;
1747;SDS011;871;47.034;15.394;2023-01-31T16:20:49;44.30;;;4.15;;
1747;SDS011;871;47.034;15.394;2023-01-31T16:25:58;39.20;;;3.92;;
1747;SDS011;871;47.034;15.394;2023-01-31T16:28:25;38.10;;;3.65;;
1747;SDS011;871;47.034;15.394;2023-01-31T16:30:53;47.20;;;6.72;;
1747;SDS011;871;47.034;15.394;2023-01-31T16:33:22;44.25;;;5.18;;
1747;SDS011;871;47.034;15.394;2023-01-31T16:36:00;48.95;;;7.32;;
1747;SDS011;871;47.034;15.394;2023-01-31T16:38:27;45.47;;;6.45;;
1747;SDS011;871;47.034;15.394;2023-01-31T16:40:54;43.83;;;7.80;;
1747;SDS011;871;47.034;15.394;2023-01-31T16:46:00;47.80;;;8.95;;
1747;SDS011;871;47.034;15.394;2023-01-31T16:50:54;44.08;;;7.50;;
1747;SDS011;871;47.034;15.394;2023-01-31T16:55:56;46.73;;;6.47;;
1747;SDS011;871;47.034;15.394;2023-01-31T16:58:54;43.40;;;7.78;;
1747;SDS011;871;47.034;15.394;2023-01-31T17:01:20;51.70;;;7.35;;
1747;SDS011;871;47.034;15.394;2023-01-31T17:03:56;53.53;;;6.70;;
1747;SDS011;871;47.034;15.394;2023-01-31T17:06:24;52.75;;;7.63;;
1747;SDS011;871;47.034;15.394;2023-01-31T17:08:50;42.55;;;5.63;;
1747;SDS011;871;47.034;15.394;2023-01-31T17:11:16;49.53;;;5.90;;
1747;SDS011;871;47.034;15.394;2023-01-31T17:13:44;41.38;;;5.50;;
1747;SDS011;871;47.034;15.394;2023-01-31T17:16:20;46.67;;;5.55;;
1747;SDS011;871;47.034;15.394;2023-01-31T17:18:52;40.55;;;4.55;;
1747;SDS011;871;47.034;15.394;2023-01-31T17:21:21;46.38;;;5.55;;
1747;SDS011;871;47.034;15.394;2023-01-31T17:23:49;43.40;;;6.82;;
1747;SDS011;871;47.034;15.394;2023-01-31T17:26:16;46.10;;;7.10;;
1747;SDS011;871;47.034;15.394;2023-01-31T17:28:44;45.10;;;7.45;;
1747;SDS011;871;47.034;15.394;2023-01-31T17:31:20;52.42;;;8.55;;
1747;SDS011;871;47.034;15.394;2023-01-31T17:33:47;43.08;;;6.80;;
1747;SDS011;871;47.034;15.394;2023-01-31T17:36:13;51.97;;;7.32;;
1747;SDS011;871;47.034;15.394;2023-01-31T17:38:40;55.47;;;11.65;;
1747;SDS011;871;47.034;15.394;2023-01-31T17:41:10;53.08;;;8.32;;
1747;SDS011;871;47.034;15.394;2023-01-31T17:43:37;38.05;;;3.13;;
1747;SDS011;871;47.034;15.394;2023-01-31T17:46:04;44.95;;;6.00;;
1747;SDS011;871;47.034;15.394;2023-01-31T17:48:30;52.47;;;9.75;;
1747;SDS011;871;47.034;15.394;2023-01-31T17:50:56;48.60;;;8.82;;
1747;SDS011;871;47.034;15.394;2023-01-31T17:53:23;46.20;;;7.30;;
1747;SDS011;871;47.034;15.394;2023-01-31T17:55:51;52.25;;;8.23;;
1747;SDS011;871;47.034;15.394;2023-01-31T17:58:17;49.72;;;8.50;;
1747;SDS011;871;47.034;15.394;2023-01-31T18:00:44;50.85;;;9.57;;
1747;SDS011;871;47.034;15.394;2023-01-31T18:03:14;46.10;;;8.50;;
1747;SDS011;871;47.034;15.394;2023-01-31T18:05:42;48.08;;;8.20;;
1747;SDS011;871;47.034;15.394;2023-01-31T18:08:08;51.40;;;9.23;;
1747;SDS011;871;47.034;15.394;2023-01-31T18:10:34;50.45;;;9.38;;
1747;SDS011;871;47.034;15.394;2023-01-31T18:13:01;45.40;;;7.28;;
1747;SDS011;871;47.034;15.394;2023-01-31T18:15:27;46.00;;;5.72;;
1747;SDS011;871;47.034;15.394;2023-01-31T18:17:54;46.20;;;8.75;;
1747;SDS011;871;47.034;15.394;2023-01-31T18:20:22;43.13;;;5.05;;
1747;SDS011;871;47.034;15.394;2023-01-31T18:22:50;42.05;;;4.20;;
1747;SDS011;871;47.034;15.394;2023-01-31T18:25:16;43.08;;;4.53;;
1747;SDS011;871;47.034;15.394;2023-01-31T18:27:44;43.63;;;5.63;;
1747;SDS011;871;47.034;15.394;2023-01-31T18:30:10;42.00;;;5.60;;
1747;SDS011;871;47.034;15.394;2023-01-31T18:32:36;42.70;;;4.35;;
1747;SDS011;871;47.034;15.394;2023-01-31T18:35:03;40.83;;;4.25;;
1747;SDS011;871;47.034;15.394;2023-01-31T18:37:31;51.83;;;10.60;;
1747;SDS011;871;47.034;15.394;2023-01-31T18:39:57;58.95;;;13.45;;
1747;SDS011;871;47.034;15.394;2023-01-31T18:42:23;49.15;;;9.48;;
1747;SDS011;871;47.034;15.394;2023-01-31T18:44:50;51.05;;;10.20;;
1747;SDS011;871;47.034;15.394;2023-01-31T18:47:16;46.40;;;8.25;;
1747;SDS011;871;47.034;15.394;2023-01-31T18:49:43;47.00;;;7.32;;
1747;SDS011;871;47.034;15.394;2023-01-31T18:52:10;46.08;;;6.80;;
1747;SDS011;871;47.034;15.394;2023-01-31T18:54:36;44.85;;;7.88;;
1747;SDS011;871;47.034;15.394;2023-01-31T18:57:03;45.35;;;7.53;;
1747;SDS011;871;47.034;15.394;2023-01-31T18:59:30;40.40;;;4.47;;
1747;SDS011;871;47.034;15.394;2023-01-31T19:01:57;44.85;;;7.18;;
1747;SDS011;871;47.034;15.394;2023-01-31T19:04:24;46.72;;;5.75;;
1747;SDS011;871;47.034;15.394;2023-01-31T19:06:51;42.95;;;5.53;;
1747;SDS011;871;47.034;15.394;2023-01-31T19:09:19;52.60;;;9.05;;
1747;SDS011;871;47.034;15.394;2023-01-31T19:11:46;43.40;;;6.95;;
1747;SDS011;871;47.034;15.394;2023-01-31T19:14:13;55.05;;;6.10;;
1747;SDS011;871;47.034;15.394;2023-01-31T19:16:41;41.55;;;5.20;;
1747;SDS011;871;47.034;15.394;2023-01-31T19:19:09;51.60;;;8.55;;
1747;SDS011;871;47.034;15.394;2023-01-31T19:21:35;46.15;;;7.32;;
1747;SDS011;871;47.034;15.394;2023-01-31T19:24:03;45.88;;;7.38;;
1747;SDS011;871;47.034;15.394;2023-01-31T19:26:30;41.60;;;6.47;;
1747;SDS011;871;47.034;15.394;2023-01-31T19:28:57;52.50;;;11.57;;
1747;SDS011;871;47.034;15.394;2023-01-31T19:31:24;46.83;;;7.10;;
1747;SDS011;871;47.034;15.394;2023-01-31T19:33:52;47.40;;;8.60;;
1747;SDS011;871;47.034;15.394;2023-01-31T19:36:20;46.47;;;7.70;;
1747;SDS011;871;47.034;15.394;2023-01-31T19:38:52;42.92;;;6.82;;
1747;SDS011;871;47.034;15.394;2023-01-31T19:41:19;40.60;;;4.68;;
1747;SDS011;871;47.034;15.394;2023-01-31T19:43:52;45.03;;;6.55;;
1747;SDS011;871;47.034;15.394;2023-01-31T19:46:19;42.67;;;5.82;;
1747;SDS011;871;47.034;15.394;2023-01-31T19:48:46;48.47;;;8.68;;
1747;SDS011;871;47.034;15.394;2023-01-31T19:51:13;46.50;;;8.85;;
1747;SDS011;871;47.034;15.394;2023-01-31T19:53:43;49.13;;;10.20;;
1747;SDS011;871;47.034;15.394;2023-01-31T19:56:09;48.20;;;9.05;;
1747;SDS011;871;47.034;15.394;2023-01-31T19:58:35;40.97;;;6.85;;
1747;SDS011;871;47.034;15.394;2023-01-31T20:01:03;53.10;;;11.02;;
1747;SDS011;871;47.034;15.394;2023-01-31T20:03:29;52.53;;;8.43;;
1747;SDS011;871;47.034;15.394;2023-01-31T20:06:02;48.85;;;9.75;;
1747;SDS011;871;47.034;15.394;2023-01-31T20:08:29;55.22;;;9.90;;
1747;SDS011;871;47.034;15.394;2023-01-31T20:10:57;58.92;;;11.57;;
1747;SDS011;871;47.034;15.394;2023-01-31T20:13:23;65.85;;;16.63;;
1747;SDS011;871;47.034;15.394;2023-01-31T20:16:00;53.53;;;12.70;;
1747;SDS011;871;47.034;15.394;2023-01-31T20:18:26;54.15;;;11.02;;
1747;SDS011;871;47.034;15.394;2023-01-31T20:20:52;47.40;;;9.80;;
1747;SDS011;871;47.034;15.394;2023-01-31T20:23:19;52.13;;;10.15;;
1747;SDS011;871;47.034;15.394;2023-01-31T20:25:46;57.55;;;11.30;;
1747;SDS011;871;47.034;15.394;2023-01-31T20:28:13;51.70;;;11.35;;
1747;SDS011;871;47.034;15.394;2023-01-31T20:30:39;57.75;;;12.15;;
1747;SDS011;871;47.034;15.394;2023-01-31T20:33:06;52.78;;;10.77;;
1747;SDS011;871;47.034;15.394;2023-01-31T20:35:32;54.13;;;11.27;;
1747;SDS011;871;47.034;15.394;2023-01-31T20:37:58;52.60;;;11.65;;
1747;SDS011;871;47.034;15.394;2023-01-31T20:40:25;51.78;;;11.32;;
1747;SDS011;871;47.034;15.394;2023-01-31T20:42:51;57.60;;;12.18;;
1747;SDS011;871;47.034;15.394;2023-01-31T20:45:17;46.47;;;10.32;;
1747;SDS011;871;47.034;15.394;2023-01-31T20:47:44;43.63;;;4.95;;
1747;SDS011;871;47.034;15.394;2023-01-31T20:50:10;53.00;;;10.68;;
1747;SDS011;871;47.034;15.394;2023-01-31T20:52:39;55.20;;;11.85;;
1747;SDS011;871;47.034;15.394;2023-01-31T20:55:05;49.83;;;10.50;;
1747;SDS011;871;47.034;15.394;2023-01-31T20:57:32;44.95;;;6.75;;
1747;SDS011;871;47.034;15.394;2023-01-31T20:59:58;50.60;;;9.05;;
1747;SDS011;871;47.034;15.394;2023-01-31T21:02:25;46.05;;;9.70;;
1747;SDS011;871;47.034;15.394;2023-01-31T21:04:51;51.72;;;10.75;;
1747;SDS011;871;47.034;15.394;2023-01-31T21:07:19;46.60;;;6.85;;
1747;SDS011;871;47.034;15.394;2023-01-31T21:09:45;53.28;;;10.43;;
1747;SDS011;871;47.034;15.394;2023-01-31T21:12:12;54.78;;;9.70;;
1747;SDS011;871;47.034;15.394;2023-01-31T21:14:39;54.15;;;9.52;;
1747;SDS011;871;47.034;15.394;2023-01-31T21:17:05;57.22;;;8.52;;
1747;SDS011;871;47.034;15.394;2023-01-31T21:19:31;49.53;;;9.80;;
1747;SDS011;871;47.034;15.394;2023-01-31T21:21:57;48.90;;;7.68;;
1747;SDS011;871;47.034;15.394;2023-01-31T21:24:23;62.03;;;9.70;;
1747;SDS011;871;47.034;15.394;2023-01-31T21:26:49;48.88;;;8.77;;
1747;SDS011;871;47.034;15.394;2023-01-31T21:29:17;46.58;;;8.40;;
1747;SDS011;871;47.034;15.394;2023-01-31T21:31:43;46.42;;;7.07;;
1747;SDS011;871;47.034;15.394;2023-01-31T21:34:09;48.72;;;8.95;;
1747;SDS011;871;47.034;15.394;2023-01-31T21:36:35;48.75;;;9.95;;
1747;SDS011;871;47.034;15.394;2023-01-31T21:39:01;45.15;;;6.63;;
1747;SDS011;871;47.034;15.394;2023-01-31T21:41:27;49.85;;;9.05;;
1747;SDS011;871;47.034;15.394;2023-01-31T21:44:12;49.03;;;8.63;;
1747;SDS011;871;47.034;15.394;2023-01-31T21:46:38;61.15;;;7.75;;
1747;SDS011;871;47.034;15.394;2023-01-31T21:49:04;44.28;;;6.95;;
1747;SDS011;871;47.034;15.394;2023-01-31T21:51:32;45.75;;;7.15;;
1747;SDS011;871;47.034;15.394;2023-01-31T21:53:58;52.40;;;8.80;;
1747;SDS011;871;47.034;15.394;2023-01-31T21:56:25;43.70;;;7.60;;
1747;SDS011;871;47.034;15.394;2023-01-31T21:58:53;46.97;;;7.55;;
